Snyder, Missouri
Current Conditions -  °F | °C
As of 8:35 AM on Friday 24 Oct 2014 (Local Time) from KVER Reporting Station
Haze Haze  
Wind Chill: 15°   Ceiling: 600
Heat Index: 15°   Visibility: 4mi
Dew Point: 15°   Wind: 0mph
Humidity: 100%   Direction: NA
Pressure: 30.09"   Gusts: NA
Location:  39.5082°N, 93.2104°W
Report Text: KVER 241335Z AUTO 00000KT 4SM BR OVC006 15/15 A3009 RMK AO2 T01520153
Loading
Personal Weather Stations






























Interactive Weather Map
Tropical Storm Tracking
New forecast layout! Learn more

10-Day Weather Forecast

Advertisements
Track Severe Weather on mobile